createdAt,value
2023-03-29T00:00:00.008Z,2.90
2023-03-29T00:02:30.717Z,3.10
2023-03-29T00:05:02.288Z,2.50
2023-03-29T00:07:30.574Z,2.70
2023-03-29T00:09:58.342Z,2.53
2023-03-29T00:12:25.948Z,2.63
2023-03-29T00:14:53.502Z,2.85
2023-03-29T00:17:21.087Z,2.47
2023-03-29T00:19:48.508Z,2.38
2023-03-29T00:22:15.780Z,2.80
2023-03-29T00:24:43.012Z,1.85
2023-03-29T00:27:10.338Z,2.75
2023-03-29T00:29:38.037Z,2.38
2023-03-29T00:32:05.478Z,2.63
2023-03-29T00:34:32.641Z,2.60
2023-03-29T00:36:59.995Z,2.20
2023-03-29T00:39:28.276Z,2.30
2023-03-29T00:41:56.258Z,2.38
2023-03-29T00:45:01.206Z,2.20
2023-03-29T00:47:38.257Z,2.38
2023-03-29T00:50:30.035Z,2.47
2023-03-29T00:53:06.832Z,1.70
2023-03-29T00:55:55.817Z,2.42
2023-03-29T00:58:33.851Z,2.55
2023-03-29T01:01:19.658Z,2.10
2023-03-29T01:03:54.922Z,2.53
2023-03-29T01:06:26.565Z,2.40
2023-03-29T01:08:58.850Z,2.13
2023-03-29T01:11:54.373Z,2.67
2023-03-29T01:14:34.231Z,2.20
2023-03-29T01:17:02.564Z,2.63
2023-03-29T01:19:34.800Z,2.20
2023-03-29T01:22:28.709Z,2.17
2023-03-29T01:25:22.746Z,2.42
2023-03-29T01:27:56.853Z,2.10
2023-03-29T01:31:10.816Z,2.00
2023-03-29T01:33:45.054Z,1.90
2023-03-29T01:36:21.485Z,1.90
2023-03-29T01:38:57.453Z,1.88
2023-03-29T01:41:35.792Z,2.20
2023-03-29T01:44:07.706Z,2.00
2023-03-29T01:46:46.555Z,1.90
2023-03-29T01:49:30.030Z,1.80
2023-03-29T01:52:04.085Z,1.90
2023-03-29T01:54:43.707Z,1.80
2023-03-29T01:57:12.301Z,1.88
2023-03-29T01:59:43.117Z,1.30
2023-03-29T02:02:15.120Z,1.80
2023-03-29T02:04:50.387Z,1.80
2023-03-29T02:07:21.604Z,1.77
2023-03-29T02:09:52.830Z,2.00
2023-03-29T02:12:21.010Z,1.77
2023-03-29T02:14:48.159Z,1.90
2023-03-29T02:17:24.316Z,2.00
2023-03-29T02:20:17.840Z,2.10
2023-03-29T02:23:09.967Z,1.90
2023-03-29T02:25:38.232Z,1.85
2023-03-29T02:28:07.278Z,2.20
2023-03-29T02:30:50.880Z,2.28
2023-03-29T02:33:24.392Z,1.95
2023-03-29T02:36:03.407Z,2.05
2023-03-29T02:38:33.140Z,2.05
2023-03-29T02:41:01.759Z,1.80
2023-03-29T02:43:30.311Z,2.20
2023-03-29T02:45:57.930Z,2.10
2023-03-29T02:48:27.470Z,1.80
2023-03-29T02:51:00.745Z,2.20
2023-03-29T02:53:34.805Z,2.03
2023-03-29T02:56:04.858Z,2.63
2023-03-29T02:58:32.143Z,1.90
2023-03-29T03:01:01.858Z,2.00
2023-03-29T03:03:29.618Z,2.28
2023-03-29T03:06:01.867Z,1.80
2023-03-29T03:08:31.050Z,1.98
2023-03-29T03:10:59.997Z,1.80
2023-03-29T03:13:27.549Z,1.85
2023-03-29T03:15:55.151Z,1.77
2023-03-29T03:18:22.974Z,1.85
2023-03-29T03:20:58.080Z,1.90
2023-03-29T03:23:25.743Z,1.55
2023-03-29T03:25:54.042Z,2.10
2023-03-29T03:28:22.583Z,1.80
2023-03-29T03:30:50.196Z,1.50
2023-03-29T03:33:18.145Z,1.73
2023-03-29T03:35:48.402Z,1.88
2023-03-29T03:38:17.559Z,1.63
2023-03-29T03:40:54.603Z,1.60
2023-03-29T03:43:22.623Z,1.50
2023-03-29T03:45:51.462Z,1.60
2023-03-29T03:48:23.418Z,1.65
2023-03-29T03:51:05.140Z,1.50
2023-03-29T03:53:34.274Z,1.50
2023-03-29T03:56:14.260Z,2.08
2023-03-29T03:59:05.922Z,1.50
2023-03-29T04:01:56.156Z,1.70
2023-03-29T04:04:25.160Z,1.50
2023-03-29T04:07:05.115Z,1.70
2023-03-29T04:09:50.749Z,1.83
2023-03-29T04:12:37.041Z,1.73
2023-03-29T04:15:07.830Z,1.80
2023-03-29T04:17:38.583Z,1.60
2023-03-29T04:20:19.139Z,1.70
2023-03-29T04:22:46.483Z,1.60
2023-03-29T04:25:13.929Z,1.88
2023-03-29T04:27:47.331Z,1.73
2023-03-29T04:30:34.755Z,1.33
2023-03-29T04:33:11.233Z,1.60
2023-03-29T04:35:41.682Z,1.65
2023-03-29T04:38:13.613Z,1.50
2023-03-29T04:40:42.432Z,1.40
2023-03-29T04:43:16.977Z,1.80
2023-03-29T04:45:56.846Z,1.52
2023-03-29T04:48:49.425Z,1.70
2023-03-29T04:51:18.167Z,1.70
2023-03-29T04:53:46.700Z,1.70
2023-03-29T04:56:14.066Z,1.55
2023-03-29T04:59:16.774Z,1.60
2023-03-29T05:01:44.323Z,1.52
2023-03-29T05:04:12.894Z,1.30
2023-03-29T05:06:49.917Z,1.55
2023-03-29T05:09:17.465Z,1.45
2023-03-29T05:11:50.294Z,1.63
2023-03-29T05:14:18.270Z,1.40
2023-03-29T05:16:45.928Z,1.70
2023-03-29T05:19:13.490Z,1.40
2023-03-29T05:21:47.259Z,1.63
2023-03-29T05:24:20.446Z,1.52
2023-03-29T05:26:54.204Z,1.70
2023-03-29T05:29:22.044Z,1.48
2023-03-29T05:31:56.137Z,1.67
2023-03-29T05:34:23.471Z,1.80
2023-03-29T05:36:57.254Z,1.50
2023-03-29T05:39:26.323Z,1.80
2023-03-29T05:41:55.236Z,1.85
2023-03-29T05:44:32.078Z,1.58
2023-03-29T05:47:09.356Z,1.60
2023-03-29T05:49:38.368Z,1.52
2023-03-29T05:52:13.426Z,1.45
2023-03-29T05:54:41.968Z,1.40
2023-03-29T05:57:10.230Z,2.03
2023-03-29T05:59:37.462Z,2.50
2023-03-29T06:02:06.101Z,1.70
2023-03-29T06:04:36.969Z,1.40
2023-03-29T06:07:23.819Z,1.65
2023-03-29T06:10:14.839Z,1.50
2023-03-29T06:12:47.403Z,1.40
2023-03-29T06:15:14.988Z,1.30
2023-03-29T06:17:47.827Z,1.50
2023-03-29T06:20:16.398Z,2.10
2023-03-29T06:22:48.810Z,2.10
2023-03-29T06:25:17.967Z,2.10
2023-03-29T06:27:47.930Z,1.60
2023-03-29T06:30:17.549Z,1.83
2023-03-29T06:32:50.710Z,1.23
2023-03-29T06:35:43.115Z,1.40
2023-03-29T06:38:14.267Z,1.08
2023-03-29T06:41:04.488Z,0.90
2023-03-29T06:43:48.567Z,1.00
2023-03-29T06:46:17.307Z,0.90
2023-03-29T06:49:10.637Z,1.10
2023-03-29T06:51:47.500Z,0.80
2023-03-29T06:54:14.866Z,0.95
2023-03-29T06:56:51.935Z,0.95
2023-03-29T06:59:21.874Z,0.93
2023-03-29T07:01:56.551Z,1.00
2023-03-29T07:04:42.162Z,1.00
2023-03-29T07:07:22.952Z,0.90
2023-03-29T07:09:56.530Z,1.30
2023-03-29T07:12:44.974Z,1.15
2023-03-29T07:15:13.742Z,1.08
2023-03-29T07:18:13.373Z,1.20
2023-03-29T07:20:42.084Z,1.13
2023-03-29T07:23:10.267Z,1.10
2023-03-29T07:25:38.624Z,1.70
2023-03-29T07:28:07.021Z,1.40
2023-03-29T07:30:35.494Z,1.40
2023-03-29T07:33:22.318Z,1.20
2023-03-29T07:35:53.373Z,1.10
2023-03-29T07:38:21.112Z,1.00
2023-03-29T07:40:54.924Z,1.67
2023-03-29T07:43:45.160Z,1.70
2023-03-29T07:46:14.534Z,1.40
2023-03-29T07:48:41.970Z,1.45
2023-03-29T07:51:11.674Z,1.58
2023-03-29T07:56:35.459Z,1.80
2023-03-29T07:59:12.023Z,1.40
2023-03-29T08:01:41.556Z,1.58
2023-03-29T08:04:18.302Z,1.30
2023-03-29T08:07:04.217Z,1.33
2023-03-29T08:09:50.368Z,1.20
2023-03-29T08:12:18.579Z,1.20
2023-03-29T08:14:46.559Z,1.60
2023-03-29T08:17:27.350Z,1.30
2023-03-29T08:19:54.602Z,1.52
2023-03-29T08:22:23.898Z,1.27
2023-03-29T08:27:48.707Z,1.23
2023-03-29T08:30:24.104Z,1.50
2023-03-29T08:32:53.649Z,1.85
2023-03-29T08:35:22.789Z,1.23
2023-03-29T08:38:05.747Z,1.00
2023-03-29T08:40:34.798Z,1.40
2023-03-29T08:43:36.530Z,1.40
2023-03-29T08:46:54.953Z,1.20
2023-03-29T08:49:31.448Z,1.10
2023-03-29T08:52:06.118Z,1.23
2023-03-29T08:54:47.788Z,1.70
2023-03-29T08:57:42.999Z,1.40
2023-03-29T09:00:23.053Z,1.30
2023-03-29T09:02:54.180Z,1.70
2023-03-29T09:05:29.283Z,1.90
2023-03-29T09:08:19.484Z,1.40
2023-03-29T09:10:57.984Z,1.50
2023-03-29T09:13:28.369Z,1.92
2023-03-29T09:16:07.822Z,1.50
2023-03-29T09:19:02.962Z,1.50
2023-03-29T09:21:49.926Z,1.40
2023-03-29T09:24:39.407Z,1.33
2023-03-29T09:27:29.013Z,1.50
2023-03-29T09:30:13.216Z,1.70
2023-03-29T09:32:55.181Z,2.15
2023-03-29T09:36:03.688Z,1.83
2023-03-29T09:38:38.237Z,1.50
2023-03-29T09:41:28.263Z,1.33
2023-03-29T09:44:00.283Z,1.80
2023-03-29T09:46:44.406Z,1.40
2023-03-29T09:49:21.676Z,1.20
2023-03-29T09:51:50.664Z,1.50
2023-03-29T09:54:20.200Z,1.80
2023-03-29T09:57:16.923Z,1.70
2023-03-29T09:59:49.871Z,1.40
2023-03-29T10:02:21.462Z,1.20
2023-03-29T10:04:56.067Z,1.30
2023-03-29T10:07:23.301Z,1.27
2023-03-29T10:09:57.262Z,1.30
2023-03-29T10:12:25.275Z,1.30
2023-03-29T10:14:54.610Z,1.55
2023-03-29T10:17:29.765Z,1.70
2023-03-29T10:20:09.646Z,1.60
2023-03-29T10:22:38.880Z,1.70
2023-03-29T10:25:13.674Z,1.85
2023-03-29T10:27:42.868Z,2.17
2023-03-29T10:30:18.854Z,1.88
2023-03-29T10:32:46.625Z,1.30
2023-03-29T10:35:26.416Z,1.48
2023-03-29T10:37:56.870Z,1.77
2023-03-29T10:40:31.188Z,2.13
2023-03-29T10:43:21.864Z,1.35
2023-03-29T10:45:51.682Z,1.80
2023-03-29T10:48:19.720Z,1.40
2023-03-29T10:50:53.410Z,1.95
2023-03-29T10:53:26.601Z,3.97
2023-03-29T10:56:29.686Z,2.00
2023-03-29T10:59:24.659Z,1.73
2023-03-29T11:02:17.426Z,1.50
2023-03-29T11:05:16.030Z,1.48
2023-03-29T11:08:02.035Z,2.42
2023-03-29T11:10:54.355Z,2.10
2023-03-29T11:13:54.625Z,2.53
2023-03-29T11:16:39.138Z,1.40
2023-03-29T11:19:32.728Z,2.50
2023-03-29T11:22:12.017Z,1.70
2023-03-29T11:25:06.840Z,2.10
2023-03-29T11:27:51.667Z,1.85
2023-03-29T11:30:36.942Z,1.98
2023-03-29T11:33:30.750Z,1.80
2023-03-29T11:36:32.164Z,1.75
2023-03-29T11:38:59.311Z,1.73
2023-03-29T11:41:30.697Z,1.60
2023-03-29T11:44:10.763Z,1.83
2023-03-29T11:46:59.086Z,1.58
2023-03-29T11:49:47.002Z,1.98
2023-03-29T11:52:33.181Z,1.73
2023-03-29T11:55:13.751Z,2.05
2023-03-29T11:57:51.753Z,1.50
2023-03-29T12:00:31.340Z,1.75
2023-03-29T12:03:05.187Z,1.42
2023-03-29T12:05:43.294Z,1.35
2023-03-29T12:08:16.849Z,1.90
2023-03-29T12:11:19.230Z,1.20
2023-03-29T12:13:53.946Z,1.50
2023-03-29T12:16:44.576Z,1.90
2023-03-29T12:19:20.958Z,2.00
2023-03-29T12:21:49.621Z,1.98
2023-03-29T12:24:21.163Z,2.13
2023-03-29T12:27:03.629Z,1.10
2023-03-29T12:29:33.985Z,2.10
2023-03-29T12:32:38.610Z,1.40
2023-03-29T12:35:53.600Z,1.58
2023-03-29T12:38:53.688Z,1.50
2023-03-29T12:41:41.963Z,1.60
2023-03-29T12:44:27.701Z,1.60
2023-03-29T12:47:26.584Z,1.52
2023-03-29T12:49:59.727Z,1.30
2023-03-29T12:52:37.377Z,1.50
2023-03-29T12:55:38.059Z,1.50
2023-03-29T12:58:11.148Z,1.50
2023-03-29T13:00:42.601Z,1.42
2023-03-29T13:03:30.239Z,2.30
2023-03-29T13:06:03.020Z,1.95
2023-03-29T13:08:37.459Z,1.40
2023-03-29T13:11:06.672Z,1.48
2023-03-29T13:13:37.114Z,1.50
2023-03-29T13:16:18.684Z,2.08
2023-03-29T13:19:30.968Z,3.00
2023-03-29T13:22:16.217Z,3.22
2023-03-29T13:25:14.103Z,1.45
2023-03-29T13:28:03.869Z,1.35
2023-03-29T13:30:52.814Z,1.60
2023-03-29T13:33:48.807Z,1.27
2023-03-29T13:36:48.113Z,1.50
2023-03-29T13:39:29.847Z,1.70
2023-03-29T13:42:35.749Z,1.80
2023-03-29T13:45:27.810Z,1.85
2023-03-29T13:48:22.342Z,1.83
2023-03-29T13:50:56.723Z,4.63
2023-03-29T13:53:31.730Z,2.00
2023-03-29T13:55:59.812Z,2.20
2023-03-29T13:58:42.174Z,2.13
2023-03-29T14:01:18.024Z,3.10
2023-03-29T14:03:48.842Z,1.92
2023-03-29T14:06:22.321Z,1.50
2023-03-29T14:08:50.264Z,1.80
2023-03-29T14:11:26.385Z,1.60
2023-03-29T14:13:56.322Z,1.60
2023-03-29T14:16:31.953Z,2.00
2023-03-29T14:19:03.204Z,1.50
2023-03-29T14:21:30.958Z,1.80
2023-03-29T14:24:02.528Z,1.70
2023-03-29T14:26:32.325Z,1.85
2023-03-29T14:29:01.658Z,1.70
2023-03-29T14:31:33.415Z,2.10
2023-03-29T14:34:02.878Z,1.40
2023-03-29T14:36:32.947Z,1.50
2023-03-29T14:39:10.891Z,1.30
2023-03-29T14:41:38.921Z,1.30
2023-03-29T14:44:07.996Z,1.20
2023-03-29T14:46:36.847Z,1.73
2023-03-29T14:49:05.454Z,1.30
2023-03-29T14:51:32.838Z,1.50
2023-03-29T14:54:03.676Z,1.23
2023-03-29T14:56:33.183Z,1.30
2023-03-29T14:59:03.219Z,1.55
2023-03-29T15:01:30.638Z,0.88
2023-03-29T15:04:05.304Z,1.48
2023-03-29T15:06:37.468Z,1.92
2023-03-29T15:09:06.486Z,1.65
2023-03-29T15:11:35.119Z,1.40
2023-03-29T15:14:05.911Z,1.73
2023-03-29T15:16:33.837Z,1.70
2023-03-29T15:19:02.199Z,1.35
2023-03-29T15:21:35.324Z,2.58
2023-03-29T15:24:04.739Z,2.00
2023-03-29T15:26:35.119Z,1.58
2023-03-29T15:29:23.808Z,1.58
2023-03-29T15:31:59.436Z,1.98
2023-03-29T15:34:34.371Z,1.50
2023-03-29T15:37:02.922Z,1.95
2023-03-29T15:39:30.578Z,1.50
2023-03-29T15:41:58.602Z,1.63
2023-03-29T15:44:38.021Z,2.20
2023-03-29T15:47:11.174Z,1.70
2023-03-29T15:49:38.639Z,2.03
2023-03-29T15:52:06.482Z,1.30
2023-03-29T15:54:34.120Z,1.50
2023-03-29T15:57:05.212Z,1.70
2023-03-29T15:59:32.804Z,1.42
2023-03-29T16:02:00.740Z,1.40
2023-03-29T16:04:28.227Z,1.75
2023-03-29T16:06:55.948Z,1.48
2023-03-29T16:09:24.095Z,1.30
2023-03-29T16:11:51.556Z,1.35
2023-03-29T16:14:23.473Z,1.80
2023-03-29T16:16:52.539Z,1.40
2023-03-29T16:19:19.759Z,1.35
2023-03-29T16:21:46.948Z,1.40
2023-03-29T16:24:16.656Z,1.75
2023-03-29T16:26:44.103Z,1.70
2023-03-29T16:29:11.998Z,2.33
2023-03-29T16:31:39.759Z,1.70
2023-03-29T16:34:07.922Z,1.73
2023-03-29T16:36:35.282Z,1.60
2023-03-29T16:39:03.477Z,2.28
2023-03-29T16:41:31.912Z,2.35
2023-03-29T16:43:59.933Z,1.70
2023-03-29T16:46:27.200Z,1.88
2023-03-29T16:48:54.588Z,1.77
2023-03-29T16:51:21.860Z,1.70
2023-03-29T16:53:49.501Z,1.95
2023-03-29T16:56:16.821Z,1.80
2023-03-29T16:58:45.089Z,1.50
2023-03-29T17:01:17.545Z,1.80
2023-03-29T17:03:44.819Z,1.50
2023-03-29T17:06:12.402Z,1.65
2023-03-29T17:08:40.048Z,1.80
2023-03-29T17:11:07.482Z,1.73
2023-03-29T17:13:35.053Z,1.90
2023-03-29T17:16:02.386Z,1.58
2023-03-29T17:18:30.066Z,1.67
2023-03-29T17:20:59.022Z,1.50
2023-03-29T17:23:26.533Z,1.70
2023-03-29T17:25:57.066Z,1.77
2023-03-29T17:28:24.642Z,1.70
2023-03-29T17:30:51.905Z,1.70
2023-03-29T17:33:22.862Z,1.92
2023-03-29T17:35:50.286Z,1.60
2023-03-29T17:38:17.652Z,1.80
2023-03-29T17:40:44.900Z,2.10
2023-03-29T17:43:12.153Z,1.73
2023-03-29T17:45:39.384Z,1.77
2023-03-29T17:48:06.756Z,1.60
2023-03-29T17:50:34.471Z,1.50
2023-03-29T17:53:01.806Z,1.70
2023-03-29T17:55:28.975Z,1.90
2023-03-29T17:57:56.838Z,1.50
2023-03-29T18:00:24.085Z,1.80
2023-03-29T18:02:51.929Z,2.00
2023-03-29T18:05:19.245Z,1.70
2023-03-29T18:07:46.474Z,1.80
2023-03-29T18:10:13.765Z,1.65
2023-03-29T18:12:40.979Z,1.50
2023-03-29T18:15:08.861Z,1.90
2023-03-29T18:17:36.155Z,1.73
2023-03-29T18:20:10.134Z,1.83
2023-03-29T18:22:39.037Z,1.73
2023-03-29T18:25:07.744Z,1.65
2023-03-29T18:27:34.927Z,1.90
2023-03-29T18:30:02.568Z,2.25
2023-03-29T18:32:29.848Z,2.22
2023-03-29T18:34:57.184Z,2.45
2023-03-29T18:37:24.501Z,2.28
2023-03-29T18:39:52.002Z,2.47
2023-03-29T18:42:22.121Z,8.30
2023-03-29T18:44:49.601Z,6.57
2023-03-29T18:47:18.531Z,3.13
2023-03-29T18:49:45.880Z,2.90
2023-03-29T18:52:13.229Z,2.40
2023-03-29T18:54:40.580Z,3.08
2023-03-29T18:57:07.825Z,2.60
2023-03-29T18:59:36.878Z,2.30
2023-03-29T19:02:04.499Z,2.65
2023-03-29T19:04:31.901Z,2.30
2023-03-29T19:07:01.628Z,2.97
2023-03-29T19:09:29.093Z,2.83
2023-03-29T19:11:56.330Z,2.65
2023-03-29T19:14:23.941Z,2.45
2023-03-29T19:16:52.514Z,2.45
2023-03-29T19:19:21.751Z,3.10
2023-03-29T19:21:49.814Z,2.42
2023-03-29T19:24:17.228Z,3.25
2023-03-29T19:26:45.036Z,3.00
2023-03-29T19:29:12.383Z,3.38
2023-03-29T19:31:39.680Z,3.65
2023-03-29T19:34:09.847Z,3.50
2023-03-29T19:36:37.732Z,3.30
2023-03-29T19:39:05.791Z,3.88
2023-03-29T19:41:32.999Z,3.55
2023-03-29T19:44:00.252Z,3.75
2023-03-29T19:46:29.223Z,3.50
2023-03-29T19:48:56.610Z,3.50
2023-03-29T19:51:24.184Z,3.42
2023-03-29T19:53:51.458Z,3.15
2023-03-29T19:56:19.103Z,3.33
2023-03-29T19:58:48.504Z,3.08
2023-03-29T20:01:21.233Z,3.15
2023-03-29T20:03:49.869Z,3.60
2023-03-29T20:06:18.621Z,3.17
2023-03-29T20:08:46.573Z,2.97
2023-03-29T20:11:15.610Z,2.85
2023-03-29T20:13:44.873Z,3.28
2023-03-29T20:16:17.742Z,3.10
2023-03-29T20:18:46.078Z,3.10
2023-03-29T20:21:17.117Z,3.15
2023-03-29T20:23:44.506Z,3.30
2023-03-29T20:26:12.369Z,3.25
2023-03-29T20:28:39.720Z,3.55
2023-03-29T20:31:11.119Z,3.33
2023-03-29T20:33:39.570Z,3.65
2023-03-29T20:36:07.191Z,3.65
2023-03-29T20:38:35.727Z,3.20
2023-03-29T20:41:04.591Z,3.10
2023-03-29T20:43:37.896Z,2.80
2023-03-29T20:46:05.908Z,2.72
2023-03-29T20:48:33.296Z,2.35
2023-03-29T20:51:03.434Z,2.80
2023-03-29T20:53:34.781Z,2.88
2023-03-29T20:56:02.384Z,2.67
2023-03-29T20:58:29.594Z,2.80
2023-03-29T21:00:59.151Z,2.53
2023-03-29T21:03:26.434Z,2.53
2023-03-29T21:05:54.571Z,2.70
2023-03-29T21:08:21.797Z,2.40
2023-03-29T21:10:48.965Z,2.13
2023-03-29T21:13:16.173Z,2.60
2023-03-29T21:15:44.048Z,2.05
2023-03-29T21:18:11.265Z,2.75
2023-03-29T21:20:38.491Z,2.95
2023-03-29T21:23:06.069Z,2.85
2023-03-29T21:25:33.285Z,2.78
2023-03-29T21:28:00.560Z,2.70
2023-03-29T21:30:29.499Z,2.88
2023-03-29T21:32:58.768Z,2.78
2023-03-29T21:35:26.058Z,2.55
2023-03-29T21:37:53.179Z,2.72
2023-03-29T21:40:20.380Z,2.83
2023-03-29T21:42:47.522Z,2.45
2023-03-29T21:45:14.799Z,2.65
2023-03-29T21:47:42.178Z,2.80
2023-03-29T21:50:11.015Z,2.38
2023-03-29T21:52:38.382Z,2.15
2023-03-29T21:55:06.722Z,2.95
2023-03-29T21:57:34.110Z,2.88
2023-03-29T22:00:01.318Z,2.67
2023-03-29T22:02:28.539Z,1.92
2023-03-29T22:04:56.034Z,1.73
2023-03-29T22:07:26.816Z,2.70
2023-03-29T22:09:55.059Z,2.85
2023-03-29T22:12:23.074Z,2.67
2023-03-29T22:14:50.243Z,2.40
2023-03-29T22:17:17.516Z,2.42
2023-03-29T22:19:44.766Z,2.67
2023-03-29T22:22:14.498Z,2.50
2023-03-29T22:24:42.479Z,2.13
2023-03-29T22:27:11.013Z,2.45
2023-03-29T22:29:38.258Z,2.97
2023-03-29T22:32:06.222Z,2.90
2023-03-29T22:34:33.688Z,2.60
2023-03-29T22:37:00.901Z,2.65
2023-03-29T22:39:28.834Z,2.30
2023-03-29T22:41:56.490Z,2.20
2023-03-29T22:44:23.668Z,2.30
2023-03-29T22:46:51.211Z,2.25
2023-03-29T22:49:18.454Z,2.25
2023-03-29T22:51:45.775Z,2.05
2023-03-29T22:54:13.076Z,1.98
2023-03-29T22:56:40.319Z,2.70
2023-03-29T22:59:07.595Z,2.20
2023-03-29T23:01:34.925Z,2.30
2023-03-29T23:04:02.343Z,2.13
2023-03-29T23:06:29.554Z,2.28
2023-03-29T23:08:56.870Z,1.85
2023-03-29T23:11:24.258Z,2.10
2023-03-29T23:13:52.801Z,2.10
2023-03-29T23:16:23.064Z,2.20
2023-03-29T23:18:50.372Z,2.00
2023-03-29T23:21:18.034Z,2.28
2023-03-29T23:23:45.172Z,2.00
2023-03-29T23:26:12.513Z,1.80
2023-03-29T23:28:41.320Z,1.60
2023-03-29T23:31:13.821Z,2.00
2023-03-29T23:36:15.482Z,2.00
2023-03-29T23:38:45.800Z,2.00
2023-03-29T23:41:13.722Z,1.73
2023-03-29T23:43:43.275Z,2.03
2023-03-29T23:46:13.544Z,2.10
2023-03-29T23:48:43.758Z,1.85
2023-03-29T23:51:12.229Z,1.85
2023-03-29T23:53:39.388Z,1.85
2023-03-29T23:56:07.343Z,2.00
2023-03-29T23:58:37.182Z,2.10
